Time;durP1;ratioP1;P1;durP2;ratioP2;P2;SDS_P1;SDS_P2;PMS_P1;PMS_P2;Temp;Humidity;BMP_temperature;BMP_pressure;BME280_temperature;BME280_humidity;BME280_pressure;Samples;Min_cycle;Max_cycle;Signal;HPM_P1;HPM_P2
2022/10/01 00:01:14;;;;;;;7.33;6.83;;;;;;;;;;5051177;28;20433;-75
2022/10/01 00:03:42;;;;;;;7.80;7.10;;;;;;;;;;5050309;28;20450;-75
2022/10/01 00:06:11;;;;;;;7.63;7.03;;;;;;;;;;5051142;28;20452;-75
2022/10/01 00:08:38;;;;;;;7.50;6.97;;;;;;;;;;5050297;28;20957;-75
2022/10/01 00:11:13;;;;;;;7.80;7.17;;;;;;;;;;5050905;28;20445;-75
2022/10/01 00:13:40;;;;;;;7.50;6.90;;;;;;;;;;5049962;28;20485;-74
2022/10/01 00:16:08;;;;;;;7.43;6.83;;;;;;;;;;5050694;28;20485;-76
2022/10/01 00:18:36;;;;;;;7.87;7.17;;;;;;;;;;5050536;28;20552;-75
2022/10/01 00:21:06;;;;;;;7.30;6.70;;;;;;;;;;5050404;28;20530;-75
2022/10/01 00:23:33;;;;;;;7.50;6.80;;;;;;;;;;5049522;28;20445;-75
2022/10/01 00:26:08;;;;;;;7.40;6.73;;;;;;;;;;5050363;28;20442;-75
2022/10/01 00:28:36;;;;;;;7.80;7.10;;;;;;;;;;5050327;28;20441;-75
2022/10/01 00:31:05;;;;;;;7.00;6.50;;;;;;;;;;5050678;28;20446;-75
2022/10/01 00:33:32;;;;;;;7.77;7.17;;;;;;;;;;5049440;28;20460;-75
2022/10/01 00:35:59;;;;;;;6.80;6.30;;;;;;;;;;5050082;28;20889;-75
2022/10/01 00:38:26;;;;;;;7.37;6.87;;;;;;;;;;5049910;28;20445;-74
2022/10/01 00:40:54;;;;;;;8.00;7.40;;;;;;;;;;5049882;28;20541;-75
2022/10/01 00:43:21;;;;;;;7.87;7.27;;;;;;;;;;5049529;28;20445;-74
2022/10/01 00:45:50;;;;;;;7.83;7.13;;;;;;;;;;5050335;28;20445;-75
2022/10/01 00:48:18;;;;;;;6.87;6.27;;;;;;;;;;5050430;28;20441;-75
2022/10/01 00:50:47;;;;;;;7.80;7.10;;;;;;;;;;5050214;28;20473;-75
2022/10/01 00:53:15;;;;;;;7.33;6.80;;;;;;;;;;5050130;28;20460;-75
2022/10/01 00:55:47;;;;;;;7.73;7.03;;;;;;;;;;5049974;28;20473;-75
2022/10/01 00:58:19;;;;;;;7.70;7.10;;;;;;;;;;5052462;28;20456;-74
2022/10/01 01:00:48;;;;;;;7.13;6.40;;;;;;;;;;5053695;28;20466;-75
2022/10/01 01:03:19;;;;;;;7.80;7.10;;;;;;;;;;5053316;28;20494;-75
2022/10/01 01:05:49;;;;;;;6.63;6.13;;;;;;;;;;5053735;28;20541;-75
2022/10/01 01:08:23;;;;;;;7.37;6.77;;;;;;;;;;5053450;28;20497;-75
2022/10/01 01:10:59;;;;;;;7.30;6.80;;;;;;;;;;5053399;28;20469;-76
2022/10/01 01:13:31;;;;;;;6.97;6.37;;;;;;;;;;5052874;28;20498;-75
2022/10/01 01:16:04;;;;;;;7.40;6.90;;;;;;;;;;5053572;28;20538;-75
2022/10/01 01:18:40;;;;;;;6.40;5.93;;;;;;;;;;5053288;28;21011;-75
2022/10/01 01:21:22;;;;;;;7.00;6.40;;;;;;;;;;5053256;28;20445;-74
2022/10/01 01:24:07;;;;;;;6.87;6.47;;;;;;;;;;5052725;28;20454;-75
2022/10/01 01:26:44;;;;;;;7.63;7.07;;;;;;;;;;5053779;28;20449;-76
2022/10/01 01:29:19;;;;;;;5.80;5.40;;;;;;;;;;5052826;28;20469;-75
2022/10/01 01:31:48;;;;;;;6.93;6.43;;;;;;;;;;5053270;28;20465;-75
2022/10/01 01:34:27;;;;;;;7.27;6.23;;;;;;;;;;5052436;28;20452;-75
2022/10/01 01:37:01;;;;;;;6.70;6.17;;;;;;;;;;5053009;28;20473;-75
2022/10/01 01:39:34;;;;;;;6.80;6.30;;;;;;;;;;5052953;28;20469;-75
2022/10/01 01:42:08;;;;;;;6.20;5.80;;;;;;;;;;5052980;28;20787;-75
2022/10/01 01:44:39;;;;;;;6.90;6.33;;;;;;;;;;5052311;28;20988;-75
2022/10/01 01:47:13;;;;;;;5.90;5.40;;;;;;;;;;5052611;28;20452;-75
2022/10/01 01:49:42;;;;;;;6.70;6.20;;;;;;;;;;5052899;28;20472;-75
2022/10/01 01:52:12;;;;;;;6.17;5.57;;;;;;;;;;5052426;28;20457;-75
2022/10/01 01:54:55;;;;;;;5.93;5.43;;;;;;;;;;5052369;28;20449;-75
2022/10/01 01:57:24;;;;;;;6.57;6.03;;;;;;;;;;5053500;28;20484;-76
2022/10/01 02:00:03;;;;;;;6.30;5.80;;;;;;;;;;5052550;28;20537;-75
2022/10/01 02:02:34;;;;;;;5.90;5.40;;;;;;;;;;5052111;28;20453;-75
2022/10/01 02:05:04;;;;;;;5.83;5.40;;;;;;;;;;5053447;28;20461;-75
2022/10/01 02:07:51;;;;;;;5.73;5.33;;;;;;;;;;5052653;28;20515;-76
2022/10/01 02:10:35;;;;;;;6.13;5.63;;;;;;;;;;5052638;28;20472;-75
2022/10/01 02:13:11;;;;;;;5.97;5.50;;;;;;;;;;5052887;28;21161;-75
2022/10/01 02:15:54;;;;;;;5.73;5.33;;;;;;;;;;5053372;28;20480;-75
2022/10/01 02:18:28;;;;;;;4.80;4.50;;;;;;;;;;5053052;28;20453;-75
2022/10/01 02:21:02;;;;;;;6.03;5.43;;;;;;;;;;5053104;28;20445;-75
2022/10/01 02:23:33;;;;;;;5.10;4.53;;;;;;;;;;5051950;28;20517;-75
2022/10/01 02:26:09;;;;;;;5.77;5.27;;;;;;;;;;5052327;28;20450;-75
2022/10/01 02:28:41;;;;;;;5.20;4.90;;;;;;;;;;5052041;28;20445;-75
2022/10/01 02:31:12;;;;;;;5.90;5.40;;;;;;;;;;5052007;28;20438;-75
2022/10/01 02:33:41;;;;;;;6.40;5.70;;;;;;;;;;5054510;28;20484;-75
2022/10/01 02:36:16;;;;;;;5.10;4.80;;;;;;;;;;5056867;28;20488;-76
2022/10/01 02:38:46;;;;;;;5.60;5.10;;;;;;;;;;5055090;28;20850;-75
2022/10/01 02:41:16;;;;;;;6.00;5.50;;;;;;;;;;5052829;28;20480;-75
2022/10/01 02:43:50;;;;;;;5.57;5.17;;;;;;;;;;5068021;28;20441;-74
2022/10/01 02:46:27;;;;;;;4.80;4.43;;;;;;;;;;5068412;28;20425;-75
2022/10/01 02:48:58;;;;;;;4.80;4.40;;;;;;;;;;5067415;28;20469;-75
2022/10/01 02:51:32;;;;;;;5.00;4.70;;;;;;;;;;5067730;28;20461;-75
2022/10/01 02:54:10;;;;;;;6.03;5.40;;;;;;;;;;5067504;28;20438;-74
2022/10/01 02:59:24;;;;;;;4.80;4.33;;;;;;;;;;5059316;28;20440;-74
2022/10/01 03:01:56;;;;;;;5.07;4.67;;;;;;;;;;5057724;28;20446;-76
2022/10/01 03:04:26;;;;;;;5.90;5.50;;;;;;;;;;5056879;28;20537;-76
2022/10/01 03:07:02;;;;;;;5.83;4.87;;;;;;;;;;5057529;28;21005;-76
2022/10/01 03:09:35;;;;;;;5.73;5.13;;;;;;;;;;5057148;28;20552;-76
2022/10/01 03:12:05;;;;;;;5.67;5.23;;;;;;;;;;5052239;28;20448;-75
2022/10/01 03:14:38;;;;;;;6.30;5.20;;;;;;;;;;5051446;28;20449;-75
2022/10/01 03:17:07;;;;;;;4.83;4.53;;;;;;;;;;5051590;28;20480;-74
2022/10/01 03:19:36;;;;;;;6.20;5.60;;;;;;;;;;5051546;28;20564;-75
2022/10/01 03:22:05;;;;;;;6.83;6.07;;;;;;;;;;5051256;28;20445;-75
2022/10/01 03:24:33;;;;;;;5.50;5.00;;;;;;;;;;5050845;28;20445;-75
2022/10/01 03:27:02;;;;;;;6.10;5.70;;;;;;;;;;5051306;28;20941;-76
2022/10/01 03:29:33;;;;;;;5.30;4.90;;;;;;;;;;5051188;28;20504;-75
2022/10/01 03:32:02;;;;;;;5.97;5.53;;;;;;;;;;5050951;28;21111;-75
2022/10/01 03:34:32;;;;;;;6.73;6.23;;;;;;;;;;5050261;28;20952;-76
2022/10/01 03:37:00;;;;;;;6.00;5.60;;;;;;;;;;5050769;28;20560;-75
2022/10/01 03:39:30;;;;;;;6.80;6.20;;;;;;;;;;5050736;28;20996;-75
2022/10/01 03:42:01;;;;;;;6.10;5.60;;;;;;;;;;5050912;28;20964;-76
2022/10/01 03:44:35;;;;;;;5.53;5.20;;;;;;;;;;5049884;28;20980;-75
2022/10/01 03:47:03;;;;;;;7.07;5.90;;;;;;;;;;5050650;28;21029;-75
2022/10/01 03:49:33;;;;;;;6.03;5.50;;;;;;;;;;5050447;28;20988;-76
2022/10/01 03:52:03;;;;;;;5.50;4.63;;;;;;;;;;5050555;28;20938;-76
2022/10/01 03:54:34;;;;;;;5.07;4.73;;;;;;;;;;5049815;28;20963;-76
2022/10/01 03:57:05;;;;;;;5.43;5.03;;;;;;;;;;5050995;28;20480;-75
2022/10/01 03:59:33;;;;;;;5.13;4.63;;;;;;;;;;5051652;28;21055;-75
2022/10/01 04:02:07;;;;;;;5.73;5.23;;;;;;;;;;5051520;28;20441;-75
2022/10/01 04:04:40;;;;;;;6.73;4.80;;;;;;;;;;5050029;28;20453;-76
2022/10/01 04:07:13;;;;;;;6.23;5.30;;;;;;;;;;5050204;28;20926;-76
2022/10/01 04:09:42;;;;;;;5.20;4.70;;;;;;;;;;5051356;28;20582;-75
2022/10/01 04:12:13;;;;;;;4.63;4.33;;;;;;;;;;5051419;28;20872;-75
2022/10/01 04:14:46;;;;;;;5.00;4.60;;;;;;;;;;5050947;28;21049;-75
2022/10/01 04:17:22;;;;;;;4.60;4.30;;;;;;;;;;5051081;28;21080;-75
2022/10/01 04:19:52;;;;;;;5.30;3.80;;;;;;;;;;5050279;28;20909;-76
2022/10/01 04:22:30;;;;;;;3.50;3.30;;;;;;;;;;5050397;28;20822;-75
2022/10/01 04:25:04;;;;;;;5.63;4.20;;;;;;;;;;5050021;28;20481;-75
2022/10/01 04:27:36;;;;;;;4.10;3.70;;;;;;;;;;5050004;28;20437;-76
2022/10/01 04:30:04;;;;;;;3.57;3.17;;;;;;;;;;5049684;28;20475;-75
2022/10/01 04:32:35;;;;;;;3.47;3.27;;;;;;;;;;5048878;28;20469;-75
2022/10/01 04:35:10;;;;;;;3.33;3.13;;;;;;;;;;5035029;28;20442;-75
2022/10/01 04:37:40;;;;;;;4.10;3.87;;;;;;;;;;5030979;28;20511;-75
2022/10/01 04:40:12;;;;;;;3.67;3.47;;;;;;;;;;5030534;28;20883;-76
2022/10/01 04:42:43;;;;;;;3.67;3.37;;;;;;;;;;5029963;28;20790;-75
2022/10/01 04:45:12;;;;;;;3.57;3.37;;;;;;;;;;5030068;28;20431;-75
2022/10/01 04:47:48;;;;;;;3.80;3.50;;;;;;;;;;5030488;28;20457;-75
2022/10/01 04:50:23;;;;;;;4.00;3.70;;;;;;;;;;5030241;28;20469;-75
2022/10/01 04:52:50;;;;;;;3.60;3.27;;;;;;;;;;5029364;28;20537;-76
2022/10/01 04:55:20;;;;;;;3.33;3.13;;;;;;;;;;5029625;28;20471;-75
2022/10/01 04:57:50;;;;;;;3.07;2.93;;;;;;;;;;5029658;28;20937;-75
2022/10/01 05:00:23;;;;;;;3.80;3.60;;;;;;;;;;5029878;28;20466;-75
2022/10/01 05:02:58;;;;;;;3.30;3.10;;;;;;;;;;5029049;28;20478;-75
2022/10/01 05:05:36;;;;;;;3.77;3.50;;;;;;;;;;5029783;28;20826;-76
2022/10/01 05:08:06;;;;;;;3.30;3.10;;;;;;;;;;5029566;28;20461;-75
2022/10/01 05:10:35;;;;;;;3.73;3.20;;;;;;;;;;5029513;28;20478;-75
2022/10/01 05:13:06;;;;;;;3.23;3.03;;;;;;;;;;5029044;28;20939;-76
2022/10/01 05:15:43;;;;;;;3.60;3.30;;;;;;;;;;5029745;28;20460;-75
2022/10/01 05:18:19;;;;;;;3.20;3.00;;;;;;;;;;5029649;28;20466;-76
2022/10/01 05:20:53;;;;;;;3.20;3.00;;;;;;;;;;5029426;28;20536;-75
2022/10/01 05:23:25;;;;;;;3.30;2.77;;;;;;;;;;5028971;28;20442;-75
2022/10/01 05:25:56;;;;;;;4.53;4.20;;;;;;;;;;5041770;28;20457;-75
2022/10/01 05:28:27;;;;;;;4.17;3.10;;;;;;;;;;5049277;28;20933;-75
2022/10/01 05:31:00;;;;;;;3.37;3.07;;;;;;;;;;5034613;28;20489;-76
2022/10/01 05:33:32;;;;;;;4.60;2.90;;;;;;;;;;5048540;28;20449;-75
2022/10/01 05:36:04;;;;;;;2.80;2.60;;;;;;;;;;5049384;28;20449;-75
2022/10/01 05:38:35;;;;;;;2.97;2.87;;;;;;;;;;5049116;28;20513;-74
2022/10/01 05:41:03;;;;;;;3.17;2.97;;;;;;;;;;5049219;28;20441;-75
2022/10/01 05:43:35;;;;;;;2.63;2.40;;;;;;;;;;5048455;28;20482;-75
2022/10/01 05:46:03;;;;;;;3.40;3.10;;;;;;;;;;5052497;28;20445;-75
2022/10/01 05:48:35;;;;;;;2.70;2.50;;;;;;;;;;5052640;28;20481;-75
2022/10/01 05:51:06;;;;;;;2.97;2.70;;;;;;;;;;5052942;28;20575;-75
2022/10/01 05:53:36;;;;;;;2.70;2.60;;;;;;;;;;5051957;28;20515;-76
2022/10/01 05:56:04;;;;;;;2.47;2.33;;;;;;;;;;5052547;28;20445;-76
2022/10/01 05:58:33;;;;;;;2.40;2.20;;;;;;;;;;5052596;28;20487;-76
2022/10/01 06:01:04;;;;;;;3.20;2.40;;;;;;;;;;5053088;28;20806;-76
2022/10/01 06:03:32;;;;;;;2.40;2.30;;;;;;;;;;5052077;28;20548;-76
2022/10/01 06:06:01;;;;;;;3.50;3.27;;;;;;;;;;5052402;28;20453;-75
2022/10/01 06:08:30;;;;;;;2.73;2.53;;;;;;;;;;5051974;28;20465;-75
2022/10/01 06:11:01;;;;;;;3.20;2.90;;;;;;;;;;5052458;28;20485;-76
2022/10/01 06:13:37;;;;;;;2.33;2.17;;;;;;;;;;5052038;28;20445;-76
2022/10/01 06:16:05;;;;;;;2.80;2.53;;;;;;;;;;5052312;28;20476;-75
2022/10/01 06:18:33;;;;;;;4.67;2.40;;;;;;;;;;5052449;28;20543;-76
2022/10/01 06:21:03;;;;;;;3.27;2.50;;;;;;;;;;5052303;28;20452;-74
2022/10/01 06:23:33;;;;;;;2.77;2.57;;;;;;;;;;5052066;28;20516;-75
2022/10/01 06:26:04;;;;;;;2.77;2.50;;;;;;;;;;5052497;28;20457;-75
2022/10/01 06:28:34;;;;;;;2.67;2.57;;;;;;;;;;5052556;28;20457;-74
2022/10/01 06:31:02;;;;;;;2.63;2.43;;;;;;;;;;5052968;28;20491;-75
2022/10/01 06:33:30;;;;;;;3.30;3.00;;;;;;;;;;5052283;28;20438;-74
2022/10/01 06:36:01;;;;;;;3.77;3.10;;;;;;;;;;5052826;28;21081;-76
2022/10/01 06:38:29;;;;;;;2.83;2.60;;;;;;;;;;5052842;28;20488;-74
2022/10/01 06:41:00;;;;;;;3.70;2.70;;;;;;;;;;5053218;28;20515;-76
2022/10/01 06:43:29;;;;;;;3.13;2.90;;;;;;;;;;5051727;28;20446;-75
2022/10/01 06:45:58;;;;;;;3.10;2.90;;;;;;;;;;5052127;28;20477;-75
2022/10/01 06:48:31;;;;;;;2.67;2.57;;;;;;;;;;5052024;28;20579;-75
2022/10/01 06:51:00;;;;;;;3.50;3.20;;;;;;;;;;5052840;28;20481;-75
2022/10/01 06:53:31;;;;;;;2.40;2.20;;;;;;;;;;5054295;28;20446;-75
2022/10/01 06:56:05;;;;;;;2.80;2.60;;;;;;;;;;5061498;28;20827;-76
2022/10/01 06:58:33;;;;;;;2.30;2.20;;;;;;;;;;5051766;28;20530;-76
2022/10/01 07:01:02;;;;;;;2.80;2.60;;;;;;;;;;5051650;28;20460;-75
2022/10/01 07:03:34;;;;;;;2.87;2.67;;;;;;;;;;5050552;28;20437;-76
2022/10/01 07:06:03;;;;;;;2.80;2.70;;;;;;;;;;5051498;28;20532;-75
2022/10/01 07:08:33;;;;;;;2.73;2.50;;;;;;;;;;5050964;28;20489;-75
2022/10/01 07:11:03;;;;;;;6.03;3.20;;;;;;;;;;5051049;28;20445;-76
2022/10/01 07:13:31;;;;;;;4.00;3.70;;;;;;;;;;5050569;28;20456;-75
2022/10/01 07:15:59;;;;;;;4.63;3.60;;;;;;;;;;5051150;28;20823;-75
2022/10/01 07:18:28;;;;;;;4.03;3.70;;;;;;;;;;5051247;28;20561;-75
2022/10/01 07:20:57;;;;;;;3.73;3.47;;;;;;;;;;5051023;28;20461;-75
2022/10/01 07:23:28;;;;;;;4.77;4.37;;;;;;;;;;5050446;28;20921;-75
2022/10/01 07:25:58;;;;;;;6.43;5.93;;;;;;;;;;5051087;28;20457;-75
2022/10/01 07:28:28;;;;;;;4.00;3.20;;;;;;;;;;5050931;28;20921;-76
2022/10/01 07:31:01;;;;;;;5.20;2.90;;;;;;;;;;5050895;28;20795;-76
2022/10/01 07:33:30;;;;;;;4.07;3.67;;;;;;;;;;5050429;28;20941;-75
2022/10/01 07:36:01;;;;;;;5.20;4.70;;;;;;;;;;5051017;28;20563;-76
2022/10/01 07:38:29;;;;;;;5.37;4.70;;;;;;;;;;5050572;28;20568;-75
2022/10/01 07:40:57;;;;;;;5.57;5.07;;;;;;;;;;5050814;28;20453;-77
2022/10/01 07:43:26;;;;;;;4.80;4.50;;;;;;;;;;5050154;28;20819;-75
2022/10/01 07:45:56;;;;;;;4.73;4.27;;;;;;;;;;5051202;28;20438;-75
2022/10/01 07:48:27;;;;;;;7.37;4.07;;;;;;;;;;5057651;28;20476;-75
2022/10/01 07:50:56;;;;;;;3.43;3.20;;;;;;;;;;5060731;28;20465;-76
2022/10/01 07:53:24;;;;;;;4.07;3.77;;;;;;;;;;5055414;28;20467;-77
2022/10/01 07:55:52;;;;;;;4.20;3.97;;;;;;;;;;5064087;28;20964;-75
2022/10/01 07:58:22;;;;;;;4.00;3.70;;;;;;;;;;5065818;28;20470;-76
2022/10/01 08:00:50;;;;;;;4.00;3.70;;;;;;;;;;5066619;28;20470;-75
2022/10/01 08:03:24;;;;;;;3.13;2.97;;;;;;;;;;5055926;28;20456;-75
2022/10/01 08:05:57;;;;;;;4.10;3.07;;;;;;;;;;5052988;28;20446;-75
2022/10/01 08:08:25;;;;;;;14.10;12.60;;;;;;;;;;5052046;28;20485;-75
2022/10/01 08:10:53;;;;;;;3.50;3.20;;;;;;;;;;5052535;28;20496;-75
2022/10/01 08:13:24;;;;;;;4.17;3.43;;;;;;;;;;5051780;28;20476;-75
2022/10/01 08:15:53;;;;;;;3.47;2.60;;;;;;;;;;5051420;28;20821;-76
2022/10/01 08:18:28;;;;;;;3.43;3.13;;;;;;;;;;5048556;28;20561;-75
2022/10/01 08:20:56;;;;;;;3.20;3.00;;;;;;;;;;5063690;28;20445;-75
2022/10/01 08:23:25;;;;;;;4.33;3.17;;;;;;;;;;5067299;28;20448;-75
2022/10/01 08:25:53;;;;;;;2.50;2.30;;;;;;;;;;5069602;28;20445;-76
2022/10/01 08:28:21;;;;;;;2.70;2.50;;;;;;;;;;5063220;28;20438;-75
2022/10/01 08:30:49;;;;;;;2.40;2.20;;;;;;;;;;5052623;28;20977;-75
2022/10/01 08:33:17;;;;;;;2.77;2.57;;;;;;;;;;5049711;28;20992;-75
2022/10/01 08:35:46;;;;;;;3.77;3.47;;;;;;;;;;5050301;28;20477;-76
2022/10/01 08:38:14;;;;;;;2.80;2.70;;;;;;;;;;5050110;28;20999;-75
2022/10/01 08:40:49;;;;;;;2.40;2.23;;;;;;;;;;5050809;28;20468;-75
2022/10/01 08:43:29;;;;;;;2.40;2.30;;;;;;;;;;5049610;28;20476;-75
2022/10/01 08:46:01;;;;;;;4.03;3.63;;;;;;;;;;5048065;28;20449;-75
2022/10/01 08:48:33;;;;;;;2.87;2.67;;;;;;;;;;5049565;28;20515;-75
2022/10/01 08:51:04;;;;;;;2.50;2.40;;;;;;;;;;5048424;28;20446;-75
2022/10/01 08:53:36;;;;;;;6.07;2.40;;;;;;;;;;5049993;28;20477;-76
2022/10/01 08:56:04;;;;;;;2.27;2.17;;;;;;;;;;5042939;28;20840;-76
2022/10/01 08:58:40;;;;;;;2.00;1.80;;;;;;;;;;5030675;28;20994;-76
2022/10/01 09:01:10;;;;;;;2.70;2.50;;;;;;;;;;5032787;28;20910;-74
2022/10/01 09:03:38;;;;;;;2.73;2.63;;;;;;;;;;5031880;28;20879;-74
2022/10/01 09:06:14;;;;;;;2.67;2.47;;;;;;;;;;5047222;28;20524;-75
2022/10/01 09:08:49;;;;;;;2.30;2.10;;;;;;;;;;5050601;28;20524;-75
2022/10/01 09:11:32;;;;;;;2.13;2.00;;;;;;;;;;5039217;28;20813;-75
2022/10/01 09:14:27;;;;;;;2.70;2.47;;;;;;;;;;5051524;28;20450;-75
2022/10/01 09:17:02;;;;;;;2.63;2.53;;;;;;;;;;5025968;28;20878;-75
2022/10/01 09:19:41;;;;;;;3.00;2.47;;;;;;;;;;5052531;28;20484;-76
2022/10/01 09:22:24;;;;;;;2.70;2.50;;;;;;;;;;5053667;28;20925;-76
2022/10/01 09:24:56;;;;;;;2.73;2.53;;;;;;;;;;5053286;28;20433;-75
2022/10/01 09:27:27;;;;;;;2.67;2.47;;;;;;;;;;5053385;28;20809;-75
2022/10/01 09:30:00;;;;;;;2.63;2.30;;;;;;;;;;5053851;28;20870;-75
2022/10/01 09:32:31;;;;;;;2.30;2.10;;;;;;;;;;5053952;28;20452;-75
2022/10/01 09:35:04;;;;;;;3.27;2.50;;;;;;;;;;5050981;28;20484;-76
2022/10/01 09:37:40;;;;;;;2.60;2.40;;;;;;;;;;5053329;28;20536;-76
2022/10/01 09:42:56;;;;;;;2.20;2.10;;;;;;;;;;5052300;28;20457;-75
2022/10/01 09:45:25;;;;;;;2.33;2.13;;;;;;;;;;5052939;28;20473;-75
2022/10/01 09:47:57;;;;;;;2.43;2.20;;;;;;;;;;5053823;28;20449;-75
2022/10/01 09:50:31;;;;;;;1.73;1.63;;;;;;;;;;5053359;28;20556;-76
2022/10/01 09:53:01;;;;;;;1.73;1.63;;;;;;;;;;5052863;28;20471;-75
2022/10/01 09:55:34;;;;;;;2.37;2.17;;;;;;;;;;5054164;28;20507;-76
2022/10/01 09:58:09;;;;;;;1.87;1.77;;;;;;;;;;5056444;28;20534;-75
2022/10/01 10:00:39;;;;;;;1.60;1.50;;;;;;;;;;5055178;28;20465;-77
2022/10/01 10:03:08;;;;;;;1.90;1.80;;;;;;;;;;5052286;28;20448;-74
2022/10/01 10:05:48;;;;;;;2.53;2.33;;;;;;;;;;5052799;28;20446;-76
2022/10/01 10:08:22;;;;;;;1.70;1.60;;;;;;;;;;5052816;28;20441;-76
2022/10/01 10:10:54;;;;;;;3.53;2.00;;;;;;;;;;5052294;28;20472;-75
2022/10/01 10:13:30;;;;;;;1.80;1.70;;;;;;;;;;5035963;28;20450;-75
2022/10/01 10:16:03;;;;;;;1.70;1.60;;;;;;;;;;5047815;28;20890;-75
2022/10/01 10:18:34;;;;;;;1.43;1.43;;;;;;;;;;5050757;28;20572;-76
2022/10/01 10:21:06;;;;;;;1.50;1.40;;;;;;;;;;5045179;28;20480;-75
2022/10/01 10:23:35;;;;;;;1.60;1.47;;;;;;;;;;5047157;28;20476;-74
2022/10/01 10:26:08;;;;;;;1.10;1.10;;;;;;;;;;5050371;28;20496;-75
2022/10/01 10:28:44;;;;;;;1.50;1.40;;;;;;;;;;5052703;28;20449;-75
2022/10/01 10:31:17;;;;;;;2.47;1.57;;;;;;;;;;5050743;28;20454;-74
2022/10/01 10:33:57;;;;;;;1.80;1.23;;;;;;;;;;5053489;28;20445;-75
2022/10/01 10:36:33;;;;;;;1.83;1.73;;;;;;;;;;5053573;28;20448;-75
2022/10/01 10:39:08;;;;;;;1.33;1.30;;;;;;;;;;5053959;28;20485;-74
2022/10/01 10:41:47;;;;;;;1.40;1.30;;;;;;;;;;5053154;28;20437;-75
2022/10/01 10:44:20;;;;;;;1.47;1.37;;;;;;;;;;5037612;28;20441;-75
2022/10/01 10:46:54;;;;;;;1.70;1.60;;;;;;;;;;5052052;28;20996;-74
2022/10/01 10:49:25;;;;;;;1.20;1.20;;;;;;;;;;5054577;28;20499;-74
2022/10/01 10:51:56;;;;;;;1.10;1.10;;;;;;;;;;5054573;28;20870;-75
2022/10/01 10:54:37;;;;;;;0.90;0.90;;;;;;;;;;5053397;28;20438;-74
2022/10/01 10:57:24;;;;;;;1.60;1.33;;;;;;;;;;5053460;28;20452;-75
2022/10/01 10:59:56;;;;;;;1.00;1.00;;;;;;;;;;5054699;28;20596;-74
2022/10/01 11:02:26;;;;;;;2.30;1.40;;;;;;;;;;5056037;28;20465;-75
2022/10/01 11:04:54;;;;;;;1.10;1.03;;;;;;;;;;5051267;28;20983;-76
2022/10/01 11:07:23;;;;;;;1.87;1.30;;;;;;;;;;5051950;28;20498;-75
2022/10/01 11:10:06;;;;;;;1.10;1.10;;;;;;;;;;5047575;28;20449;-75
2022/10/01 11:12:45;;;;;;;1.07;1.07;;;;;;;;;;5051716;28;20537;-75
2022/10/01 11:15:22;;;;;;;1.17;1.17;;;;;;;;;;5051876;28;20474;-78
2022/10/01 11:18:09;;;;;;;0.93;0.90;;;;;;;;;;5049532;28;20464;-76
2022/10/01 11:20:41;;;;;;;1.20;1.10;;;;;;;;;;5051814;28;21001;-75
2022/10/01 11:23:22;;;;;;;1.00;1.00;;;;;;;;;;5054596;28;20445;-76
2022/10/01 11:26:08;;;;;;;0.83;0.83;;;;;;;;;;5052743;28;20442;-75
2022/10/01 11:28:45;;;;;;;1.13;0.70;;;;;;;;;;5052504;28;20437;-76
2022/10/01 11:31:30;;;;;;;1.13;1.03;;;;;;;;;;5055112;28;20425;-76
2022/10/01 11:34:12;;;;;;;1.40;1.30;;;;;;;;;;5059495;28;20445;-77
2022/10/01 11:36:44;;;;;;;1.20;1.10;;;;;;;;;;5054777;28;20433;-75
2022/10/01 11:39:15;;;;;;;0.97;0.90;;;;;;;;;;5050398;28;21021;-76
2022/10/01 11:41:57;;;;;;;1.83;0.90;;;;;;;;;;5053482;28;20452;-77
2022/10/01 11:44:30;;;;;;;1.10;1.10;;;;;;;;;;5048188;28;20492;-76
2022/10/01 11:47:00;;;;;;;0.80;0.80;;;;;;;;;;5052785;28;20533;-77
2022/10/01 11:49:42;;;;;;;1.53;1.10;;;;;;;;;;5051723;28;20472;-77
2022/10/01 11:52:13;;;;;;;0.93;0.80;;;;;;;;;;5050837;28;20441;-76
2022/10/01 11:54:43;;;;;;;1.40;1.27;;;;;;;;;;5050525;28;20437;-76
2022/10/01 12:00:13;;;;;;;0.97;0.97;;;;;;;;;;5051718;28;20566;-76
2022/10/01 12:02:44;;;;;;;1.40;1.30;;;;;;;;;;5050552;28;20456;-76
2022/10/01 12:05:20;;;;;;;1.10;1.00;;;;;;;;;;5050834;28;20445;-76
2022/10/01 12:07:50;;;;;;;1.10;1.10;;;;;;;;;;5051066;28;20530;-76
2022/10/01 12:10:23;;;;;;;1.80;1.00;;;;;;;;;;5049870;28;20866;-76
2022/10/01 12:12:55;;;;;;;1.57;1.23;;;;;;;;;;5049313;28;20448;-75
2022/10/01 12:15:27;;;;;;;1.13;1.13;;;;;;;;;;5050304;28;20863;-77
2022/10/01 12:17:58;;;;;;;0.70;0.70;;;;;;;;;;5049712;28;20869;-77
2022/10/01 12:20:28;;;;;;;1.03;0.93;;;;;;;;;;5056694;28;20484;-77
2022/10/01 12:22:56;;;;;;;1.00;1.00;;;;;;;;;;5068937;28;20928;-77
2022/10/01 12:25:26;;;;;;;1.00;1.00;;;;;;;;;;5069096;28;20527;-77
2022/10/01 12:27:58;;;;;;;1.30;1.30;;;;;;;;;;5068575;28;20542;-76
2022/10/01 12:30:29;;;;;;;1.13;1.10;;;;;;;;;;5050380;28;20473;-76
2022/10/01 12:33:03;;;;;;;1.00;1.00;;;;;;;;;;5044746;28;20450;-77
2022/10/01 12:35:39;;;;;;;1.23;1.20;;;;;;;;;;5042111;28;20537;-77
2022/10/01 12:38:13;;;;;;;1.10;1.10;;;;;;;;;;5048823;28;20933;-77
2022/10/01 12:40:42;;;;;;;1.60;1.30;;;;;;;;;;5041416;28;20643;-77
2022/10/01 12:43:26;;;;;;;1.70;1.60;;;;;;;;;;5048680;28;20827;-77
2022/10/01 12:46:02;;;;;;;1.13;1.03;;;;;;;;;;5049520;28;20912;-77
2022/10/01 12:48:32;;;;;;;1.23;1.23;;;;;;;;;;5030117;28;20474;-76
2022/10/01 12:51:07;;;;;;;1.87;1.77;;;;;;;;;;5033375;28;20456;-77
2022/10/01 12:53:39;;;;;;;1.50;1.40;;;;;;;;;;5046511;28;20444;-76
2022/10/01 12:56:15;;;;;;;1.10;1.10;;;;;;;;;;5053012;28;20828;-77
2022/10/01 12:58:50;;;;;;;4.33;1.17;;;;;;;;;;5045002;28;20441;-77
2022/10/01 13:01:24;;;;;;;1.00;1.00;;;;;;;;;;5053261;28;20453;-77
2022/10/01 13:04:04;;;;;;;1.17;1.17;;;;;;;;;;5052675;28;20468;-76
2022/10/01 13:06:36;;;;;;;2.00;1.37;;;;;;;;;;5052968;28;20452;-77
2022/10/01 13:09:09;;;;;;;2.00;1.67;;;;;;;;;;5053027;28;20481;-77
2022/10/01 13:11:44;;;;;;;1.90;1.80;;;;;;;;;;5053003;28;20886;-77
2022/10/01 13:14:13;;;;;;;1.40;1.40;;;;;;;;;;5053756;28;20846;-77
2022/10/01 13:16:44;;;;;;;1.73;1.57;;;;;;;;;;5056066;28;20439;-76
2022/10/01 13:19:15;;;;;;;1.93;1.20;;;;;;;;;;5053364;28;20568;-77
2022/10/01 13:21:51;;;;;;;1.00;1.00;;;;;;;;;;5054633;28;20445;-76
2022/10/01 13:24:19;;;;;;;1.17;1.17;;;;;;;;;;5055604;28;20952;-76
2022/10/01 13:26:49;;;;;;;1.80;1.17;;;;;;;;;;5054760;28;20875;-76
2022/10/01 13:29:24;;;;;;;1.47;1.37;;;;;;;;;;5052565;28;20465;-76
2022/10/01 13:31:56;;;;;;;1.50;1.40;;;;;;;;;;5052296;28;20473;-77
2022/10/01 13:34:25;;;;;;;1.53;1.50;;;;;;;;;;5051643;28;20582;-76
2022/10/01 13:36:52;;;;;;;1.57;1.47;;;;;;;;;;5052452;28;20485;-76
2022/10/01 13:39:22;;;;;;;2.37;1.17;;;;;;;;;;5052454;28;20481;-77
2022/10/01 13:41:50;;;;;;;1.20;1.20;;;;;;;;;;5052564;28;20986;-76
2022/10/01 13:44:23;;;;;;;1.40;1.30;;;;;;;;;;5051194;28;20471;-77
2022/10/01 13:46:51;;;;;;;1.20;1.20;;;;;;;;;;5051660;28;20480;-77
2022/10/01 13:49:23;;;;;;;1.67;1.57;;;;;;;;;;5052258;28;20460;-76
2022/10/01 13:51:50;;;;;;;1.00;1.00;;;;;;;;;;5052401;28;20442;-76
2022/10/01 13:54:23;;;;;;;1.00;1.00;;;;;;;;;;5051764;28;20507;-77
2022/10/01 13:56:50;;;;;;;0.97;0.97;;;;;;;;;;5052080;28;20449;-76
2022/10/01 13:59:31;;;;;;;1.07;0.97;;;;;;;;;;5051767;28;20485;-77
2022/10/01 14:01:58;;;;;;;0.93;0.93;;;;;;;;;;5052502;28;20643;-78
2022/10/01 14:04:33;;;;;;;1.13;1.03;;;;;;;;;;5053466;28;20457;-78
2022/10/01 14:07:01;;;;;;;0.90;0.90;;;;;;;;;;5045741;28;20452;-76
2022/10/01 14:09:29;;;;;;;1.20;1.20;;;;;;;;;;5057197;28;20449;-78
2022/10/01 14:17:31;;;;;;;0.70;0.70;;;;;;;;;;5055187;28;20463;-77
2022/10/01 14:20:00;;;;;;;0.80;0.80;;;;;;;;;;5052006;28;20488;-77
2022/10/01 14:22:34;;;;;;;0.80;0.63;;;;;;;;;;5051540;28;20449;-77
2022/10/01 14:25:07;;;;;;;0.70;0.70;;;;;;;;;;5051896;28;20652;-76
2022/10/01 14:27:39;;;;;;;0.70;0.60;;;;;;;;;;5052822;28;20441;-76
2022/10/01 14:30:07;;;;;;;1.67;0.90;;;;;;;;;;5051933;28;20461;-76
2022/10/01 14:32:41;;;;;;;0.70;0.70;;;;;;;;;;5051214;28;20446;-76
2022/10/01 14:35:19;;;;;;;1.33;0.97;;;;;;;;;;5050109;28;20445;-77
2022/10/01 14:37:46;;;;;;;1.33;1.00;;;;;;;;;;5052026;28;20499;-76
2022/10/01 14:40:16;;;;;;;0.90;0.53;;;;;;;;;;5051346;28;20888;-77
2022/10/01 14:42:43;;;;;;;2.93;1.00;;;;;;;;;;5050833;28;20799;-76
2022/10/01 14:45:17;;;;;;;0.67;0.67;;;;;;;;;;5052356;28;20556;-76
2022/10/01 14:47:44;;;;;;;0.70;0.70;;;;;;;;;;5050055;28;20441;-76
2022/10/01 14:50:21;;;;;;;0.93;0.93;;;;;;;;;;5050690;28;20461;-77
2022/10/01 14:52:49;;;;;;;0.80;0.80;;;;;;;;;;5046674;28;20446;-77
2022/10/01 14:55:18;;;;;;;1.70;0.80;;;;;;;;;;5045947;28;20531;-76
2022/10/01 14:57:48;;;;;;;0.83;0.80;;;;;;;;;;5046987;28;20453;-76
2022/10/01 15:00:16;;;;;;;0.97;0.97;;;;;;;;;;5050626;28;20473;-77
2022/10/01 15:02:45;;;;;;;0.80;0.80;;;;;;;;;;5048210;28;20524;-76
2022/10/01 15:05:20;;;;;;;1.20;0.97;;;;;;;;;;5050300;28;20525;-76
2022/10/01 15:07:47;;;;;;;0.87;0.80;;;;;;;;;;5043308;28;20441;-76
2022/10/01 15:10:17;;;;;;;1.37;1.27;;;;;;;;;;5050542;28;20462;-76
2022/10/01 15:12:45;;;;;;;1.07;0.70;;;;;;;;;;5049945;28;20481;-77
2022/10/01 15:15:19;;;;;;;0.63;0.63;;;;;;;;;;5050404;28;20441;-76
2022/10/01 15:17:47;;;;;;;4.20;0.90;;;;;;;;;;5049787;28;20464;-77
2022/10/01 15:20:14;;;;;;;1.40;0.87;;;;;;;;;;5049794;28;20482;-77
2022/10/01 15:22:44;;;;;;;0.90;0.90;;;;;;;;;;5049758;28;20453;-76
2022/10/01 15:25:16;;;;;;;0.90;0.60;;;;;;;;;;5050717;28;20469;-77